KBAK

Columbus Municipal Airport

Columbus, Indiana, USA
METAR KBAK 212145Z 25010KT 10SM SCT025 BKN032 OVC049 23/18 A2973
Observed Flight Rules
Jul-21 @ 21:45 UTC (49 minutes ago) Visual Flight Rules
Wind Visibility Clouds
250° at 10 knots 10 miles
  • Scattered at 2,500' AGL
  • Broken at 3,200' AGL
  • Overcast at 4,900' AGL
Temperatures Readings
Current 23°C / 73°F
Dewpoint 18°C / 64°F
Humidity 74%
Altimeter 29.73" Hg
Pressure 1007 hPa
Elevation 200
METAR KBAK 212145Z 25010KT 10SM SCT025 BKN032 OVC049 23/18 A2973
Observed Flight Rules
Jul-21 @ 21:45 UTC
(49 minutes ago)
VFR
Wind Visibility
250° at 10 knots 10 miles
Clouds
  • Scattered at 2,500' AGL
  • Broken at 3,200' AGL
  • Overcast at 4,900' AGL
Temperature Dewpoint
23°C / 73°F 18°C / 64°F
Humidity Altimeter Pressure
74% 29.73" Hg 1007 hPa